createdAt,value
2019-02-15T00:01:15.735Z,102679.72
2019-02-15T00:03:42.677Z,102678.36
2019-02-15T00:06:09.564Z,102682.35
2019-02-15T00:08:36.656Z,102687.70
2019-02-15T00:11:03.576Z,102688.58
2019-02-15T00:13:30.545Z,102687.03
2019-02-15T00:15:57.509Z,102691.56
2019-02-15T00:18:34.392Z,102684.66
2019-02-15T00:21:07.231Z,102673.95
2019-02-15T00:23:34.153Z,102673.75
2019-02-15T00:26:01.074Z,102681.06
2019-02-15T00:28:27.970Z,102679.08
2019-02-15T00:30:54.928Z,102676.64
2019-02-15T00:33:22.154Z,102614.38
2019-02-15T00:35:49.070Z,102677.73
2019-02-15T00:38:15.974Z,102674.03
2019-02-15T00:40:42.924Z,102672.60
2019-02-15T00:43:09.816Z,102672.11
2019-02-15T00:45:58.990Z,102674.92
2019-02-15T00:48:25.906Z,102675.83
2019-02-15T00:51:21.050Z,102677.64
2019-02-15T00:54:00.174Z,102664.24
2019-02-15T00:56:37.905Z,102667.11
2019-02-15T00:59:36.219Z,102670.83
2019-02-15T01:02:22.042Z,102671.50
2019-02-15T01:05:07.340Z,102678.91
2019-02-15T01:07:59.461Z,102679.67
2019-02-15T01:10:41.120Z,102692.16
2019-02-15T01:13:11.055Z,102671.31
2019-02-15T01:15:37.998Z,102678.76
2019-02-15T01:18:04.960Z,102677.64
2019-02-15T01:20:31.917Z,102668.31
2019-02-15T01:22:58.843Z,102675.83
2019-02-15T01:25:27.650Z,102677.19
2019-02-15T01:27:59.551Z,102673.98
2019-02-15T01:30:44.541Z,102665.53
2019-02-15T01:33:49.509Z,102664.59
2019-02-15T01:36:22.940Z,102666.15
2019-02-15T01:39:07.833Z,102668.63
2019-02-15T01:42:03.301Z,102663.22
2019-02-15T01:44:49.684Z,102655.81
2019-02-15T01:47:20.437Z,102663.09
2019-02-15T01:49:47.378Z,102664.55
2019-02-15T01:52:14.299Z,102662.58
2019-02-15T01:54:41.192Z,102659.91
2019-02-15T01:57:08.107Z,102660.17
2019-02-15T01:59:35.022Z,102659.23
2019-02-15T02:02:01.998Z,102653.57
2019-02-15T02:04:28.877Z,102646.63
2019-02-15T02:06:55.925Z,102646.41
2019-02-15T02:09:22.969Z,102641.99
2019-02-15T02:11:49.888Z,102641.69
2019-02-15T02:14:16.917Z,102651.11
2019-02-15T02:16:43.881Z,102644.94
2019-02-15T02:19:10.788Z,102642.53
2019-02-15T02:21:37.707Z,102633.11
2019-02-15T02:24:04.616Z,102633.51
2019-02-15T02:26:31.564Z,102635.52
2019-02-15T02:28:58.455Z,102627.03
2019-02-15T02:31:25.388Z,102630.90
2019-02-15T02:33:52.288Z,102632.19
2019-02-15T02:36:19.219Z,102625.60
2019-02-15T02:38:46.092Z,102625.13
2019-02-15T02:41:13.014Z,102619.02
2019-02-15T02:43:39.924Z,102615.05
2019-02-15T02:46:06.843Z,102613.03
2019-02-15T02:48:33.709Z,102616.84
2019-02-15T02:51:00.595Z,102615.63
2019-02-15T02:53:27.539Z,102612.94
2019-02-15T02:55:54.428Z,102612.52
2019-02-15T02:58:21.349Z,102613.25
2019-02-15T03:00:48.244Z,102612.89
2019-02-15T03:03:15.142Z,102616.91
2019-02-15T03:05:42.022Z,102617.10
2019-02-15T03:08:08.959Z,102615.36
2019-02-15T03:10:35.844Z,102616.33
2019-02-15T03:13:02.784Z,102613.66
2019-02-15T03:15:29.697Z,102604.91
2019-02-15T03:17:56.656Z,102599.61
2019-02-15T03:20:30.884Z,102605.63
2019-02-15T03:22:52.384Z,102606.25
2019-02-15T03:25:19.281Z,102607.75
2019-02-15T03:27:46.200Z,102608.72
2019-02-15T03:30:13.119Z,102601.06
2019-02-15T03:32:40.061Z,102600.59
2019-02-15T03:35:07.362Z,102604.14
2019-02-15T03:37:53.925Z,102604.36
2019-02-15T03:40:29.502Z,102598.95
2019-02-15T03:42:56.447Z,102598.58
2019-02-15T03:45:23.325Z,102598.17
2019-02-15T03:47:50.230Z,102595.56
2019-02-15T03:50:17.125Z,102591.85
2019-02-15T03:52:44.038Z,102592.27
2019-02-15T03:55:10.928Z,102597.20
2019-02-15T03:57:37.843Z,102595.30
2019-02-15T04:00:06.192Z,102591.85
2019-02-15T04:02:33.102Z,102594.42
2019-02-15T04:04:59.987Z,102597.52
2019-02-15T04:07:26.897Z,102597.67
2019-02-15T04:09:53.778Z,102595.36
2019-02-15T04:12:20.713Z,102596.80
2019-02-15T04:14:47.624Z,102591.59
2019-02-15T04:17:14.633Z,102588.55
2019-02-15T04:19:41.517Z,102590.37
2019-02-15T04:22:08.412Z,102599.61
2019-02-15T04:24:35.358Z,102592.05
2019-02-15T04:27:02.264Z,102594.94
2019-02-15T04:29:29.214Z,102592.83
2019-02-15T04:31:56.102Z,102589.64
2019-02-15T04:34:23.050Z,102584.50
2019-02-15T04:36:49.966Z,102587.52
2019-02-15T04:39:16.885Z,102586.92
2019-02-15T04:41:43.783Z,102591.13
2019-02-15T04:44:10.713Z,102580.59
2019-02-15T04:46:37.616Z,102579.88
2019-02-15T04:49:04.525Z,102590.41
2019-02-15T04:51:31.492Z,102593.19
2019-02-15T04:53:58.475Z,102593.14
2019-02-15T04:56:25.368Z,102597.92
2019-02-15T04:58:52.302Z,102596.39
2019-02-15T05:01:19.218Z,102600.80
2019-02-15T05:03:46.147Z,102598.92
2019-02-15T05:06:13.050Z,102598.45
2019-02-15T05:08:39.998Z,102592.90
2019-02-15T05:11:06.920Z,102592.50
2019-02-15T05:13:33.844Z,102588.48
2019-02-15T05:16:00.774Z,102588.02
2019-02-15T05:18:27.711Z,102592.81
2019-02-15T05:20:54.602Z,102588.30
2019-02-15T05:23:21.546Z,102593.59
2019-02-15T05:25:48.457Z,102597.64
2019-02-15T05:28:15.383Z,102592.50
2019-02-15T05:30:42.294Z,102588.77
2019-02-15T05:33:09.215Z,102585.16
2019-02-15T05:35:36.151Z,102586.44
2019-02-15T05:38:03.121Z,102592.71
2019-02-15T05:40:30.039Z,102587.48
2019-02-15T05:42:57.030Z,102584.81
2019-02-15T05:45:24.039Z,102581.77
2019-02-15T05:47:50.927Z,102583.77
2019-02-15T05:50:17.862Z,102574.99
2019-02-15T05:52:44.767Z,102588.66
2019-02-15T05:55:11.713Z,102584.12
2019-02-15T05:57:38.598Z,102584.94
2019-02-15T06:00:07.570Z,102584.38
2019-02-15T06:02:34.460Z,102587.58
2019-02-15T06:05:01.460Z,102587.83
2019-02-15T06:07:28.352Z,102543.86
2019-02-15T06:09:55.374Z,102592.34
2019-02-15T06:12:22.649Z,102587.20
2019-02-15T06:14:49.589Z,102592.81
2019-02-15T06:17:16.551Z,102603.91
2019-02-15T06:19:43.470Z,102596.91
2019-02-15T06:22:10.684Z,102588.95
2019-02-15T06:24:37.723Z,102583.56
2019-02-15T06:27:04.658Z,102583.97
2019-02-15T06:29:31.717Z,102585.47
2019-02-15T06:31:58.643Z,102599.23
2019-02-15T06:34:25.591Z,102592.96
2019-02-15T06:36:52.506Z,102597.13
2019-02-15T06:39:19.413Z,102600.80
2019-02-15T06:41:46.359Z,102599.77
2019-02-15T06:44:14.264Z,102600.86
2019-02-15T06:46:41.200Z,102599.89
2019-02-15T06:49:08.111Z,102600.30
2019-02-15T06:51:35.039Z,102594.28
2019-02-15T06:54:01.944Z,102594.44
2019-02-15T06:56:28.889Z,102592.18
2019-02-15T06:59:13.673Z,102592.81
2019-02-15T07:01:49.409Z,102589.23
2019-02-15T07:04:35.953Z,102588.64
2019-02-15T07:07:02.920Z,102592.74
2019-02-15T07:09:29.823Z,102593.97
2019-02-15T07:11:56.748Z,102593.94
2019-02-15T07:14:23.654Z,102592.50
2019-02-15T07:16:50.601Z,102597.29
2019-02-15T07:19:17.483Z,102589.80
2019-02-15T07:21:44.494Z,102599.05
2019-02-15T07:24:11.399Z,102595.03
2019-02-15T07:26:38.320Z,102598.83
2019-02-15T07:29:05.230Z,102599.89
2019-02-15T07:31:32.166Z,102599.70
2019-02-15T07:33:59.067Z,102601.14
2019-02-15T07:36:26.098Z,102603.73
2019-02-15T07:38:53.044Z,102592.53
2019-02-15T07:41:19.986Z,102600.64
2019-02-15T07:43:47.081Z,102601.52
2019-02-15T07:46:14.092Z,102604.19
2019-02-15T07:48:41.000Z,102597.41
2019-02-15T07:51:09.941Z,102593.80
2019-02-15T07:53:36.881Z,102598.06
2019-02-15T07:56:03.816Z,102593.34
2019-02-15T07:58:30.725Z,102596.98
2019-02-15T08:00:57.639Z,102592.87
2019-02-15T08:03:24.523Z,102591.78
2019-02-15T08:05:51.459Z,102588.89
2019-02-15T08:08:18.342Z,102567.78
2019-02-15T08:10:45.255Z,102580.76
2019-02-15T08:13:12.193Z,102571.97
2019-02-15T08:15:39.137Z,102579.98
2019-02-15T08:18:06.079Z,102579.19
2019-02-15T08:20:32.990Z,102576.66
2019-02-15T08:22:59.945Z,102571.41
2019-02-15T08:25:26.843Z,102574.87
2019-02-15T08:27:53.761Z,102568.53
2019-02-15T08:30:22.083Z,102574.86
2019-02-15T08:32:49.228Z,102573.51
2019-02-15T08:35:16.139Z,102571.23
2019-02-15T08:37:43.115Z,102569.78
2019-02-15T08:40:10.063Z,102562.93
2019-02-15T08:42:37.015Z,102561.86
2019-02-15T08:45:04.943Z,102560.03
2019-02-15T08:47:31.935Z,102557.69
2019-02-15T08:49:58.837Z,102556.44
2019-02-15T08:52:25.795Z,102553.31
2019-02-15T08:54:52.702Z,102559.63
2019-02-15T08:57:19.649Z,102558.98
2019-02-15T08:59:46.557Z,102565.16
2019-02-15T09:02:33.128Z,102565.58
2019-02-15T09:05:01.958Z,102564.51
2019-02-15T09:07:28.945Z,102562.80
2019-02-15T09:09:55.843Z,102560.06
2019-02-15T09:12:22.786Z,102559.94
2019-02-15T09:14:49.700Z,102566.87
2019-02-15T09:17:16.679Z,102566.23
2019-02-15T09:19:43.637Z,102560.58
2019-02-15T09:22:10.581Z,102562.56
2019-02-15T09:24:37.477Z,102566.05
2019-02-15T09:27:22.582Z,102557.34
2019-02-15T09:29:49.504Z,102551.77
2019-02-15T09:32:16.447Z,102552.20
2019-02-15T09:34:43.361Z,102545.33
2019-02-15T09:37:10.301Z,102545.77
2019-02-15T09:39:37.215Z,102542.61
2019-02-15T09:42:04.124Z,102540.14
2019-02-15T09:44:31.077Z,102536.36
2019-02-15T09:46:57.986Z,102532.94
2019-02-15T09:49:24.924Z,102531.20
2019-02-15T09:51:51.846Z,102533.88
2019-02-15T09:54:18.782Z,102528.50
2019-02-15T09:56:45.691Z,102533.61
2019-02-15T09:59:12.636Z,102534.64
2019-02-15T10:01:39.551Z,102536.61
2019-02-15T10:04:06.491Z,102530.52
2019-02-15T10:06:33.407Z,102529.27
2019-02-15T10:09:00.387Z,102529.44
2019-02-15T10:11:27.260Z,102527.63
2019-02-15T10:13:54.254Z,102528.72
2019-02-15T10:16:28.632Z,102531.03
2019-02-15T10:18:49.978Z,102525.77
2019-02-15T10:21:16.911Z,102525.10
2019-02-15T10:23:43.959Z,102526.93
2019-02-15T10:26:10.928Z,102513.58
2019-02-15T10:28:37.874Z,102526.80
2019-02-15T10:31:04.781Z,102524.33
2019-02-15T10:33:31.719Z,102521.23
2019-02-15T10:35:58.642Z,102526.61
2019-02-15T10:38:25.583Z,102524.00
2019-02-15T10:40:52.560Z,102524.05
2019-02-15T10:43:19.695Z,102517.61
2019-02-15T10:45:46.621Z,102515.00
2019-02-15T10:48:13.559Z,102513.70
2019-02-15T10:50:40.470Z,102497.13
2019-02-15T10:53:07.386Z,102503.40
2019-02-15T10:55:34.342Z,102496.42
2019-02-15T10:58:01.514Z,102489.92
2019-02-15T11:00:28.589Z,102490.78
2019-02-15T11:02:55.508Z,102488.61
2019-02-15T11:05:22.462Z,102480.77
2019-02-15T11:07:49.446Z,102476.80
2019-02-15T11:10:16.608Z,102480.70
2019-02-15T11:12:43.542Z,102473.69
2019-02-15T11:15:11.281Z,102477.56
2019-02-15T11:17:38.341Z,102470.97
2019-02-15T11:20:06.463Z,102468.28
2019-02-15T11:22:33.382Z,102468.59
2019-02-15T11:25:01.185Z,102462.44
2019-02-15T11:27:30.764Z,102456.80
2019-02-15T11:29:57.727Z,102456.59
2019-02-15T11:32:24.640Z,102455.06
2019-02-15T11:34:51.612Z,102450.84
2019-02-15T11:37:18.787Z,102447.34
2019-02-15T11:39:46.150Z,102441.05
2019-02-15T11:42:13.067Z,102446.25
2019-02-15T11:44:40.203Z,102441.31
2019-02-15T11:47:07.144Z,102423.14
2019-02-15T11:49:34.304Z,102429.30
2019-02-15T11:52:01.225Z,102426.57
2019-02-15T11:54:28.190Z,102427.41
2019-02-15T11:56:55.294Z,102423.23
2019-02-15T11:59:22.590Z,102415.45
2019-02-15T12:01:49.495Z,102416.63
2019-02-15T12:04:16.539Z,102418.11
2019-02-15T12:06:43.505Z,102406.09
2019-02-15T12:09:10.601Z,102409.52
2019-02-15T12:11:37.516Z,102407.70
2019-02-15T12:14:04.653Z,102408.70
2019-02-15T12:16:31.710Z,102401.01
2019-02-15T12:18:59.049Z,102393.55
2019-02-15T12:21:25.988Z,102395.16
2019-02-15T12:23:53.214Z,102393.22
2019-02-15T12:26:20.489Z,102393.63
2019-02-15T12:28:47.519Z,102388.37
2019-02-15T12:31:14.469Z,102381.05
2019-02-15T12:33:41.390Z,102382.10
2019-02-15T12:36:08.334Z,102383.15
2019-02-15T12:38:35.247Z,102386.07
2019-02-15T12:41:02.192Z,102380.38
2019-02-15T12:43:30.431Z,102370.44
2019-02-15T12:45:57.380Z,102367.19
2019-02-15T12:48:24.311Z,102367.06
2019-02-15T12:50:51.304Z,102360.16
2019-02-15T12:53:18.176Z,102357.23
2019-02-15T12:55:45.132Z,102352.56
2019-02-15T12:58:12.056Z,102348.95
2019-02-15T13:00:39.610Z,102346.88
2019-02-15T13:03:06.534Z,102342.86
2019-02-15T13:05:34.772Z,102337.73
2019-02-15T13:08:01.712Z,102331.73
2019-02-15T13:10:31.807Z,102328.85
2019-02-15T13:12:58.709Z,102318.94
2019-02-15T13:15:25.652Z,102319.91
2019-02-15T13:17:52.607Z,102317.18
2019-02-15T13:20:19.669Z,102313.62
2019-02-15T13:22:46.556Z,102318.52
2019-02-15T13:25:13.549Z,102314.87
2019-02-15T13:27:40.458Z,102304.70
2019-02-15T13:30:08.724Z,102308.23
2019-02-15T13:32:35.635Z,102297.50
2019-02-15T13:35:02.619Z,102299.63
2019-02-15T13:37:29.532Z,102294.23
2019-02-15T13:39:56.502Z,102288.86
2019-02-15T13:42:23.435Z,102287.36
2019-02-15T13:44:50.332Z,102287.77
2019-02-15T13:47:17.277Z,102280.30
2019-02-15T13:49:44.194Z,102280.61
2019-02-15T13:52:11.151Z,102251.70
2019-02-15T13:54:38.544Z,102276.63
2019-02-15T13:57:05.811Z,102272.16
2019-02-15T13:59:32.725Z,102273.89
2019-02-15T14:01:59.667Z,102269.92
2019-02-15T14:04:26.992Z,102273.59
2019-02-15T14:06:54.891Z,102261.47
2019-02-15T14:09:21.914Z,102258.55
2019-02-15T14:11:48.842Z,102255.38
2019-02-15T14:14:15.766Z,102241.86
2019-02-15T14:16:42.789Z,102249.44
2019-02-15T14:19:09.723Z,102240.56
2019-02-15T14:21:44.147Z,102243.18
2019-02-15T14:24:05.491Z,102238.26
2019-02-15T14:26:32.458Z,102232.59
2019-02-15T14:28:59.359Z,102226.74
2019-02-15T14:31:26.328Z,102222.58
2019-02-15T14:33:53.245Z,102223.61
2019-02-15T14:36:20.190Z,102216.52
2019-02-15T14:38:47.095Z,102217.52
2019-02-15T14:41:14.040Z,102211.72
2019-02-15T14:43:40.927Z,102208.05
2019-02-15T14:46:07.864Z,102213.31
2019-02-15T14:48:34.811Z,102200.81
2019-02-15T14:51:01.756Z,102202.51
2019-02-15T14:53:28.667Z,102198.92
2019-02-15T14:55:55.611Z,102197.05
2019-02-15T14:58:22.524Z,102192.66
2019-02-15T15:00:49.473Z,102187.27
2019-02-15T15:03:16.379Z,102187.91
2019-02-15T15:05:43.327Z,102182.84
2019-02-15T15:08:10.275Z,102182.87
2019-02-15T15:10:37.220Z,102181.27
2019-02-15T15:13:04.168Z,102178.59
2019-02-15T15:15:31.111Z,102169.58
2019-02-15T15:18:05.880Z,102172.01
2019-02-15T15:20:26.950Z,102169.67
2019-02-15T15:22:53.899Z,102165.16
2019-02-15T15:25:20.818Z,102167.54
2019-02-15T15:27:47.776Z,102159.90
2019-02-15T15:30:14.710Z,102159.64
2019-02-15T15:32:41.642Z,102161.67
2019-02-15T15:35:08.628Z,102158.52
2019-02-15T15:37:35.605Z,102155.80
2019-02-15T15:40:02.719Z,102148.61
2019-02-15T15:42:29.669Z,102147.09
2019-02-15T15:44:56.582Z,102149.72
2019-02-15T15:47:23.545Z,102141.62
2019-02-15T15:49:50.478Z,102143.97
2019-02-15T15:52:17.412Z,102143.94
2019-02-15T15:54:44.337Z,102142.87
2019-02-15T15:57:11.266Z,102133.42
2019-02-15T15:59:38.186Z,102137.43
2019-02-15T16:02:05.148Z,102133.99
2019-02-15T16:04:32.042Z,102127.98
2019-02-15T16:06:58.992Z,102129.67
2019-02-15T16:09:25.909Z,102130.09
2019-02-15T16:11:52.879Z,102130.19
2019-02-15T16:14:19.789Z,102131.05
2019-02-15T16:16:47.149Z,102127.70
2019-02-15T16:19:14.901Z,102122.47
2019-02-15T16:21:44.395Z,102121.61
2019-02-15T16:24:12.827Z,102121.05
2019-02-15T16:26:40.155Z,102118.53
2019-02-15T16:29:07.169Z,102116.42
2019-02-15T16:31:34.281Z,102120.23
2019-02-15T16:34:01.321Z,102119.89
2019-02-15T16:36:28.367Z,102120.84
2019-02-15T16:38:55.324Z,102118.48
2019-02-15T16:41:22.239Z,102114.45
2019-02-15T16:43:49.181Z,102112.66
2019-02-15T16:46:16.190Z,102106.86
2019-02-15T16:48:43.096Z,102108.80
2019-02-15T16:51:10.015Z,102102.02
2019-02-15T16:53:36.983Z,102106.64
2019-02-15T16:56:03.903Z,102104.61
2019-02-15T16:58:30.864Z,102108.27
2019-02-15T17:00:57.779Z,102105.75
2019-02-15T17:03:24.930Z,102107.23
2019-02-15T17:05:51.953Z,102103.45
2019-02-15T17:08:18.892Z,102113.36
2019-02-15T17:10:45.810Z,102114.71
2019-02-15T17:13:12.746Z,102120.58
2019-02-15T17:15:40.134Z,102117.22
2019-02-15T17:18:07.204Z,102120.76
2019-02-15T17:20:34.150Z,102117.34
2019-02-15T17:23:01.067Z,102114.83
2019-02-15T17:25:28.044Z,102112.31
2019-02-15T17:27:54.981Z,102114.52
2019-02-15T17:30:21.892Z,102107.55
2019-02-15T17:32:48.838Z,102112.38
2019-02-15T17:35:15.722Z,102110.71
2019-02-15T17:37:42.671Z,102110.77
2019-02-15T17:40:09.892Z,102111.22
2019-02-15T17:42:36.830Z,102115.15
2019-02-15T17:45:04.248Z,102110.78
2019-02-15T17:47:31.373Z,102118.27
2019-02-15T17:49:58.380Z,102110.83
2019-02-15T17:52:25.369Z,102114.34
2019-02-15T17:54:52.276Z,102116.96
2019-02-15T17:57:19.882Z,102115.64
2019-02-15T17:59:46.794Z,102121.33
2019-02-15T18:02:13.804Z,102111.72
2019-02-15T18:04:40.852Z,102110.84
2019-02-15T18:07:07.897Z,102106.88
2019-02-15T18:09:35.098Z,102102.92
2019-02-15T18:12:02.165Z,102101.20
2019-02-15T18:14:30.207Z,102104.26
2019-02-15T18:16:59.054Z,102106.42
2019-02-15T18:19:26.112Z,102105.09
2019-02-15T18:21:53.193Z,102098.49
2019-02-15T18:24:20.137Z,102100.19
2019-02-15T18:26:47.087Z,102099.78
2019-02-15T18:29:14.155Z,102094.55
2019-02-15T18:31:41.278Z,102096.77
2019-02-15T18:34:08.290Z,102093.72
2019-02-15T18:36:35.335Z,102092.42
2019-02-15T18:39:04.361Z,102092.43
2019-02-15T18:41:31.579Z,102092.43
2019-02-15T18:43:58.638Z,102085.47
2019-02-15T18:46:25.712Z,102085.91
2019-02-15T18:48:52.669Z,102079.82
2019-02-15T18:51:19.594Z,102084.16
2019-02-15T18:53:46.533Z,102076.30
2019-02-15T18:56:13.448Z,102071.08
2019-02-15T18:58:40.559Z,102065.45
2019-02-15T19:01:07.463Z,102069.38
2019-02-15T19:03:35.149Z,102070.70
2019-02-15T19:06:02.240Z,102068.13
2019-02-15T19:08:29.224Z,102060.25
2019-02-15T19:10:57.207Z,102069.86
2019-02-15T19:13:24.580Z,102072.90
2019-02-15T19:15:51.554Z,102071.60
2019-02-15T19:18:18.507Z,102075.10
2019-02-15T19:20:45.727Z,102065.95
2019-02-15T19:23:13.787Z,102065.54
2019-02-15T19:25:40.738Z,102062.08
2019-02-15T19:28:07.856Z,102059.89
2019-02-15T19:30:34.892Z,102056.84
2019-02-15T19:33:01.876Z,102056.42
2019-02-15T19:35:28.909Z,102057.31
2019-02-15T19:37:55.834Z,102046.40
2019-02-15T19:40:23.231Z,102046.84
2019-02-15T19:42:52.168Z,102039.89
2019-02-15T19:45:19.083Z,102049.02
2019-02-15T19:47:46.456Z,102043.81
2019-02-15T19:50:15.091Z,102041.64
2019-02-15T19:52:42.333Z,102041.64
2019-02-15T19:55:10.889Z,102037.73
2019-02-15T19:57:37.976Z,102039.44
2019-02-15T20:00:08.217Z,102039.45
2019-02-15T20:02:37.004Z,102031.16
2019-02-15T20:05:05.805Z,102035.52
2019-02-15T20:07:32.689Z,102035.90
2019-02-15T20:09:59.640Z,102030.27
2019-02-15T20:12:27.334Z,102030.67
2019-02-15T20:14:54.816Z,102029.32
2019-02-15T20:17:22.404Z,102034.09
2019-02-15T20:19:51.037Z,102038.77
2019-02-15T20:22:18.087Z,102033.52
2019-02-15T20:24:45.035Z,102036.54
2019-02-15T20:27:11.974Z,102029.54
2019-02-15T20:29:38.921Z,102026.05
2019-02-15T20:32:05.869Z,102023.39
2019-02-15T20:34:32.781Z,102022.96
2019-02-15T20:36:59.767Z,102030.30
2019-02-15T20:39:26.719Z,102031.56
2019-02-15T20:41:53.680Z,102031.05
2019-02-15T20:44:20.567Z,102034.45
2019-02-15T20:46:47.539Z,102026.55
2019-02-15T20:49:14.462Z,102025.66
2019-02-15T20:51:41.431Z,102023.85
2019-02-15T20:54:08.446Z,102021.66
2019-02-15T20:56:35.409Z,102016.39
2019-02-15T20:59:02.318Z,102014.59
2019-02-15T21:01:29.284Z,102012.00
2019-02-15T21:03:56.190Z,102023.68
2019-02-15T21:06:23.151Z,102016.69
2019-02-15T21:08:50.089Z,102017.45
2019-02-15T21:11:17.279Z,102014.45
2019-02-15T21:13:44.224Z,102017.89
2019-02-15T21:16:11.169Z,102014.79
2019-02-15T21:18:38.187Z,102018.12
2019-02-15T21:21:05.183Z,102009.31
2019-02-15T21:23:32.713Z,102009.64
2019-02-15T21:25:59.795Z,102008.70
2019-02-15T21:28:26.747Z,102005.16
2019-02-15T21:30:53.714Z,102010.67
2019-02-15T21:33:20.695Z,102008.38
2019-02-15T21:35:47.668Z,102007.90
2019-02-15T21:38:14.620Z,102009.29
2019-02-15T21:40:41.642Z,102009.29
2019-02-15T21:43:08.574Z,102019.36
2019-02-15T21:45:35.878Z,102015.55
2019-02-15T21:48:02.834Z,102007.52
2019-02-15T21:50:29.752Z,102013.05
2019-02-15T21:52:56.706Z,102004.23
2019-02-15T21:55:23.612Z,101998.02
2019-02-15T21:57:50.541Z,101998.39
2019-02-15T22:00:17.833Z,101991.00
2019-02-15T22:02:44.896Z,101987.52
2019-02-15T22:05:13.598Z,101987.52
2019-02-15T22:07:40.538Z,101991.69
2019-02-15T22:10:07.976Z,101992.02
2019-02-15T22:12:34.946Z,101988.87
2019-02-15T22:15:01.852Z,101984.87
2019-02-15T22:17:30.041Z,101983.02
2019-02-15T22:19:58.199Z,101987.65
2019-02-15T22:22:25.315Z,101992.28
2019-02-15T22:24:52.567Z,101986.05
2019-02-15T22:27:19.624Z,101985.25
2019-02-15T22:29:46.528Z,101984.25
2019-02-15T22:32:13.695Z,101987.53
2019-02-15T22:34:41.101Z,101984.38
2019-02-15T22:37:08.234Z,101986.27
2019-02-15T22:39:35.162Z,101980.65
2019-02-15T22:42:02.119Z,101984.91
2019-02-15T22:44:29.045Z,101990.47
2019-02-15T22:46:55.976Z,101995.56
2019-02-15T22:49:22.893Z,101992.05
2019-02-15T22:51:49.860Z,101989.08
2019-02-15T22:54:16.779Z,101984.59
2019-02-15T22:56:43.704Z,101980.31
2019-02-15T22:59:10.694Z,101987.30
2019-02-15T23:01:37.644Z,101980.84
2019-02-15T23:04:04.589Z,101973.23
2019-02-15T23:06:31.510Z,101974.44
2019-02-15T23:08:59.018Z,101974.49
2019-02-15T23:11:25.913Z,101978.41
2019-02-15T23:13:52.847Z,101974.88
2019-02-15T23:16:19.761Z,101970.48
2019-02-15T23:18:46.744Z,101971.30
2019-02-15T23:21:13.700Z,101976.32
2019-02-15T23:23:40.657Z,101964.30
2019-02-15T23:26:07.549Z,101965.72
2019-02-15T23:28:34.490Z,101961.36
2019-02-15T23:31:01.427Z,101964.81
2019-02-15T23:33:28.353Z,101966.80
2019-02-15T23:35:55.264Z,101966.36
2019-02-15T23:38:22.212Z,101967.89
2019-02-15T23:40:49.103Z,101966.29
2019-02-15T23:43:16.062Z,101963.23
2019-02-15T23:45:44.926Z,101961.75
2019-02-15T23:48:11.849Z,101958.75
2019-02-15T23:50:38.957Z,101958.69
2019-02-15T23:53:05.934Z,101966.00
2019-02-15T23:55:32.835Z,101952.55
2019-02-15T23:57:59.810Z,101955.29
